CCE weather

Capital International Airport
Cairo Governorate, Egypt

Public forecast

Using degrees Celsius for public forecast. Weather courtesy of forecast.io.

Closest aviation weather report (METAR) to Capital International Airport

Closest report is Cairo International Airport, 22.7 nm (42.1 km) W. Retrieved 2019/10/22 12:00 UTC (54 minutes ago):

HECA 221200Z 36009KT 6000 SCT025 BKN070 28/18 Q1010 NOSIG

Closest aviation forecast (TAF) to Capital International Airport

Closest forecast is Cairo International Airport, 22.7 nm (42.1 km) W. Retrieved 2019/10/22 14:00 UTC (0 seconds ago):

TAF HECA 221330Z 2214/2318 01008KT 6000 SCT025 TEMPO 2212/2308 4000 TSRA SCT020CB BKN030 TEMPO 2300/2308 VRB03KT 3000 BR TEMPO 2300/2306 1500 PROB40 2303/2306 0800 FG